Time;durP1;ratioP1;P1;durP2;ratioP2;P2;SDS_P1;SDS_P2;PMS_P1;PMS_P2;Temp;Humidity;BMP_temperature;BMP_pressure;BME280_temperature;BME280_humidity;BME280_pressure;Samples;Min_cycle;Max_cycle;Signal;HPM_P1;HPM_P2
2021/12/23 00:00:34;;;;;;;6.63;5.25;;;;;;;-0.65;40.74;94640.53;4970912;28;20046;-75
2021/12/23 00:03:00;;;;;;;12.32;7.50;;;;;;;-0.47;40.23;94653.53;4971378;28;20116;-74
2021/12/23 00:05:26;;;;;;;9.50;5.60;;;;;;;-0.53;40.53;94638.72;4969737;28;20506;-75
2021/12/23 00:07:51;;;;;;;6.60;5.20;;;;;;;-0.46;40.31;94638.63;4972222;28;20030;-76
2021/12/23 00:10:17;;;;;;;8.20;6.07;;;;;;;-0.40;40.11;94656.84;4971301;28;20022;-75
2021/12/23 00:12:45;;;;;;;5.47;4.40;;;;;;;-0.41;40.33;94644.00;4967722;28;20481;-75
2021/12/23 00:15:36;;;;;;;9.48;5.25;;;;;;;-0.25;39.78;94657.22;4968225;28;20054;-75
2021/12/23 00:18:18;;;;;;;5.65;4.30;;;;;;;-0.14;39.51;94659.03;4969021;28;20303;-75
2021/12/23 00:23:26;;;;;;;8.80;4.72;;;;;;;-0.55;39.94;94630.34;4972184;28;20482;-75
2021/12/23 00:25:55;;;;;;;5.80;4.05;;;;;;;-0.30;39.60;94645.84;4967259;28;20030;-75
2021/12/23 00:28:21;;;;;;;10.35;4.95;;;;;;;-0.34;39.73;94657.78;4971170;28;20034;-74
2021/12/23 00:30:46;;;;;;;6.53;4.72;;;;;;;-0.36;39.87;94652.75;4969490;28;20516;-74
2021/12/23 00:33:11;;;;;;;4.97;3.53;;;;;;;-0.40;39.16;94635.13;4972772;28;20123;-74
2021/12/23 00:35:38;;;;;;;4.90;3.60;;;;;;;-0.66;39.13;94644.16;4972259;28;20038;-74
2021/12/23 00:38:12;;;;;;;18.75;8.90;;;;;;;-0.62;39.30;94645.28;4970320;28;20277;-74
2021/12/23 00:40:38;;;;;;;4.85;3.97;;;;;;;-0.55;39.32;94646.81;4974892;28;21469;-74
2021/12/23 00:43:03;;;;;;;9.95;4.45;;;;;;;-0.35;39.01;94651.75;4975878;28;20380;-73
2021/12/23 00:45:29;;;;;;;6.13;4.35;;;;;;;-0.34;38.78;94648.13;4974029;28;20473;-74
2021/12/23 00:47:54;;;;;;;6.60;4.72;;;;;;;-0.34;39.11;94653.34;4979693;28;20046;-74
2021/12/23 00:50:21;;;;;;;4.80;4.03;;;;;;;-0.17;38.72;94645.63;4973354;28;20043;-74
2021/12/23 00:52:54;;;;;;;9.75;4.68;;;;;;;-0.10;38.42;94654.97;4979252;28;20042;-74
2021/12/23 00:55:20;;;;;;;5.60;4.72;;;;;;;-0.26;39.13;94660.84;4976363;28;20754;-75
2021/12/23 00:57:46;;;;;;;9.32;4.88;;;;;;;-0.49;39.57;94634.69;4977409;28;20046;-74
2021/12/23 01:00:18;;;;;;;6.47;3.90;;;;;;;-0.25;39.48;94656.41;4979119;28;20031;-74
2021/12/23 01:02:45;;;;;;;6.90;4.63;;;;;;;-0.48;39.59;94625.03;4975681;28;20087;-75
2021/12/23 01:05:13;;;;;;;5.20;4.18;;;;;;;-0.50;39.49;94625.25;4971689;28;20038;-74
2021/12/23 01:07:39;;;;;;;5.25;3.63;;;;;;;-0.48;39.58;94617.19;4977513;28;20411;-75
2021/12/23 01:10:06;;;;;;;6.55;3.85;;;;;;;-0.41;39.56;94621.28;4974944;28;20043;-74
2021/12/23 01:12:38;;;;;;;5.18;3.58;;;;;;;-0.53;39.49;94608.16;4975722;28;20038;-75
2021/12/23 01:20:50;;;;;;;7.63;3.78;;;;;;;-0.96;39.91;94639.75;4955584;28;20042;-74
2021/12/23 01:23:16;;;;;;;4.45;3.30;;;;;;;-0.86;39.56;94609.69;4974203;28;20745;-74
2021/12/23 01:25:41;;;;;;;4.47;3.40;;;;;;;-1.02;40.04;94614.50;4975623;28;20684;-73
2021/12/23 01:28:08;;;;;;;7.68;4.35;;;;;;;-1.02;40.45;94645.06;4975394;28;20430;-73
2021/12/23 01:30:37;;;;;;;6.53;4.70;;;;;;;-0.82;40.35;94634.31;4973663;28;20073;-72
2021/12/23 01:33:04;;;;;;;6.85;4.18;;;;;;;-0.57;39.62;94638.38;4973839;28;20108;-73
2021/12/23 01:35:30;;;;;;;6.43;4.30;;;;;;;-0.91;40.36;94606.94;4974046;28;20042;-74
2021/12/23 01:37:56;;;;;;;6.57;4.60;;;;;;;-0.76;40.36;94636.06;4975509;28;20033;-75
2021/12/23 01:40:24;;;;;;;5.70;4.90;;;;;;;-0.73;40.14;94638.25;4975669;28;20493;-74
2021/12/23 01:42:50;;;;;;;9.88;4.80;;;;;;;-0.91;40.21;94604.31;4974598;28;20571;-74
2021/12/23 01:45:21;;;;;;;8.27;4.85;;;;;;;-0.74;40.37;94628.81;4979701;28;20038;-74
2021/12/23 01:47:48;;;;;;;10.32;5.57;;;;;;;-0.63;40.15;94626.22;4974963;28;20039;-74
2021/12/23 01:50:15;;;;;;;10.05;5.03;;;;;;;-0.75;40.46;94622.00;4972645;28;20405;-74
2021/12/23 01:52:42;;;;;;;10.13;6.07;;;;;;;-0.73;40.49;94619.97;4973013;28;20373;-74
2021/12/23 01:55:09;;;;;;;9.95;5.80;;;;;;;-0.75;40.35;94601.09;4972144;28;20045;-75
2021/12/23 01:57:36;;;;;;;12.35;6.93;;;;;;;-0.78;40.86;94606.78;4974962;28;20121;-74
2021/12/23 02:00:07;;;;;;;9.00;6.13;;;;;;;-0.77;40.70;94616.19;4974631;28;20116;-74
2021/12/23 02:02:33;;;;;;;9.98;6.82;;;;;;;-0.64;40.09;94627.25;4978322;28;20049;-74
2021/12/23 02:05:00;;;;;;;8.50;6.18;;;;;;;-0.86;40.52;94612.28;4973352;28;20397;-74
2021/12/23 02:07:26;;;;;;;10.70;6.55;;;;;;;-0.91;40.90;94627.81;4977326;28;20018;-74
2021/12/23 02:09:51;;;;;;;9.15;6.43;;;;;;;-1.01;40.93;94608.28;4969692;28;20058;-75
2021/12/23 02:12:17;;;;;;;15.38;6.30;;;;;;;-0.87;40.69;94631.63;4987477;28;20046;-73
2021/12/23 02:14:43;;;;;;;8.98;6.10;;;;;;;-1.02;40.87;94638.00;4975364;28;20046;-74
2021/12/23 02:17:10;;;;;;;17.55;7.43;;;;;;;-1.24;41.41;94620.44;4974908;28;20073;-73
2021/12/23 02:19:35;;;;;;;11.30;6.82;;;;;;;-1.16;41.44;94641.81;4973378;28;20496;-75
2021/12/23 02:22:01;;;;;;;11.00;6.80;;;;;;;-1.27;41.62;94639.16;4968601;28;20129;-74
2021/12/23 02:24:26;;;;;;;16.23;6.78;;;;;;;-1.33;41.54;94622.56;4975867;28;20038;-75
2021/12/23 02:26:52;;;;;;;11.98;6.53;;;;;;;-1.20;41.43;94655.53;4973111;28;20585;-75
2021/12/23 02:29:18;;;;;;;9.95;6.47;;;;;;;-1.31;41.24;94620.50;4972190;28;20035;-74
2021/12/23 02:31:48;;;;;;;11.93;6.35;;;;;;;-1.11;41.33;94644.56;4975036;28;20018;-74
2021/12/23 02:34:14;;;;;;;8.65;6.03;;;;;;;-0.85;40.15;94645.22;4973748;28;20109;-74
2021/12/23 02:36:41;;;;;;;9.73;6.15;;;;;;;-1.12;40.85;94627.28;4974808;28;20080;-74
2021/12/23 02:39:06;;;;;;;9.05;5.95;;;;;;;-1.21;41.49;94638.25;4975204;28;20038;-73
2021/12/23 02:41:33;;;;;;;9.77;6.50;;;;;;;-1.24;41.15;94636.09;4974706;28;20128;-73
2021/12/23 02:43:59;;;;;;;10.38;6.28;;;;;;;-1.49;41.54;94610.09;4973383;28;20018;-74
2021/12/23 02:46:24;;;;;;;10.32;5.85;;;;;;;-1.22;41.39;94640.09;4973999;28;20029;-74
2021/12/23 02:48:49;;;;;;;7.15;5.28;;;;;;;-1.43;41.36;94614.44;4970349;28;20049;-74
2021/12/23 02:51:16;;;;;;;10.05;6.45;;;;;;;-1.80;41.25;94573.75;4972127;28;20070;-74
2021/12/23 02:53:43;;;;;;;11.10;5.10;;;;;;;-1.44;41.52;94636.34;4970444;28;20038;-74
2021/12/23 02:56:15;;;;;;;6.88;5.90;;;;;;;-1.66;41.61;94606.50;4966743;28;20698;-74
2021/12/23 02:58:42;;;;;;;7.65;4.72;;;;;;;-1.58;41.96;94625.25;4975403;28;20028;-74
2021/12/23 03:01:09;;;;;;;7.53;4.60;;;;;;;-1.64;41.83;94628.72;4972788;28;20040;-73
2021/12/23 03:03:35;;;;;;;9.48;5.40;;;;;;;-1.72;41.47;94602.94;4975990;28;20277;-74
2021/12/23 03:06:00;;;;;;;11.65;5.72;;;;;;;-1.78;41.41;94589.97;4975316;28;20041;-74
2021/12/23 03:08:33;;;;;;;7.18;5.03;;;;;;;-1.87;41.79;94592.06;4970761;28;20600;-74
2021/12/23 03:10:59;;;;;;;9.68;5.05;;;;;;;-1.67;41.93;94623.16;4971339;28;20116;-73
2021/12/23 03:13:25;;;;;;;7.88;5.22;;;;;;;-2.08;41.86;94587.25;4974556;28;20073;-74
2021/12/23 03:15:53;;;;;;;9.10;5.28;;;;;;;-1.91;41.48;94585.69;4971295;28;20054;-72
2021/12/23 03:18:18;;;;;;;8.35;4.95;;;;;;;-1.76;41.64;94617.44;4973200;28;20122;-74
2021/12/23 03:20:45;;;;;;;7.05;4.20;;;;;;;-2.01;41.88;94590.63;4972268;28;20042;-74
2021/12/23 03:23:10;;;;;;;9.75;5.43;;;;;;;-2.15;42.06;94584.75;4969049;28;20058;-74
2021/12/23 03:25:36;;;;;;;8.40;5.18;;;;;;;-2.00;42.21;94605.25;4975741;28;20076;-74
2021/12/23 03:28:04;;;;;;;12.80;5.55;;;;;;;-1.92;42.34;94613.59;4977333;28;20069;-75
2021/12/23 03:30:30;;;;;;;8.63;5.88;;;;;;;-2.11;42.39;94595.53;4974822;28;20053;-74
2021/12/23 03:32:56;;;;;;;12.32;6.68;;;;;;;-2.05;42.52;94613.72;4970574;28;20548;-74
2021/12/23 03:35:22;;;;;;;11.98;5.22;;;;;;;-2.08;42.52;94611.53;4972556;28;20096;-74
2021/12/23 03:37:47;;;;;;;10.02;6.22;;;;;;;-2.22;42.23;94598.81;4971828;28;20102;-74
2021/12/23 03:40:13;;;;;;;9.63;6.40;;;;;;;-2.11;42.19;94609.34;4973590;28;20161;-74
2021/12/23 03:42:39;;;;;;;9.60;6.32;;;;;;;-1.94;41.95;94620.00;4969207;28;20089;-74
2021/12/23 03:45:07;;;;;;;9.93;5.72;;;;;;;-2.21;42.34;94606.44;4975968;28;20408;-74
2021/12/23 03:47:35;;;;;;;13.15;5.22;;;;;;;-2.25;42.59;94613.09;4970881;28;20049;-74
2021/12/23 03:50:02;;;;;;;8.70;5.43;;;;;;;-2.36;42.78;94611.97;4977063;28;20659;-74
2021/12/23 03:52:30;;;;;;;10.25;6.43;;;;;;;-2.41;42.90;94618.84;4975748;28;20037;-74
2021/12/23 03:54:55;;;;;;;11.75;6.85;;;;;;;-2.08;42.12;94618.53;4976085;28;20085;-74
2021/12/23 03:57:21;;;;;;;9.88;5.72;;;;;;;-2.54;42.52;94593.72;4966766;28;20047;-74
2021/12/23 03:59:46;;;;;;;10.20;5.45;;;;;;;-3.18;42.25;94487.28;4979125;28;20047;-75
2021/12/23 04:02:11;;;;;;;10.18;5.75;;;;;;;-2.55;43.02;94604.31;4973295;28;20209;-75
2021/12/23 04:04:37;;;;;;;5.78;4.43;;;;;;;-2.37;42.62;94627.81;4974760;28;20019;-74
2021/12/23 04:07:03;;;;;;;10.18;5.72;;;;;;;-2.57;43.04;94614.16;4970885;28;20034;-74
2021/12/23 04:09:28;;;;;;;10.88;6.22;;;;;;;-2.51;42.70;94605.50;4973744;28;20654;-73
2021/12/23 04:11:54;;;;;;;12.23;6.45;;;;;;;-2.92;43.25;94566.94;4974843;28;20053;-74
2021/12/23 04:14:19;;;;;;;12.07;6.18;;;;;;;-2.64;43.50;94622.03;4973744;28;20047;-74
2021/12/23 04:16:45;;;;;;;10.18;5.93;;;;;;;-2.56;43.64;94631.38;4982188;28;20088;-74
2021/12/23 04:19:11;;;;;;;11.25;6.72;;;;;;;-2.71;43.35;94614.25;4980554;28;20042;-74
2021/12/23 04:21:38;;;;;;;11.43;5.82;;;;;;;-2.61;43.30;94623.41;4975317;28;20117;-74
2021/12/23 04:24:04;;;;;;;17.92;6.00;;;;;;;-2.71;43.33;94616.84;5004605;28;20027;-74
2021/12/23 04:26:29;;;;;;;11.60;5.72;;;;;;;-2.61;43.33;94636.41;4979847;28;20496;-75
2021/12/23 04:28:55;;;;;;;10.05;5.40;;;;;;;-2.74;43.34;94622.50;4978586;28;20029;-74
2021/12/23 04:31:23;;;;;;;8.07;5.60;;;;;;;-2.63;43.53;94641.06;4977842;28;20037;-74
2021/12/23 04:33:50;;;;;;;11.60;5.82;;;;;;;-2.58;43.34;94633.41;4976360;28;20038;-74
2021/12/23 04:36:17;;;;;;;11.75;6.28;;;;;;;-2.61;43.52;94628.59;4976348;28;20050;-74
2021/12/23 04:38:43;;;;;;;11.93;6.35;;;;;;;-3.03;43.32;94560.63;4975867;28;20044;-75
2021/12/23 04:41:09;;;;;;;9.77;5.40;;;;;;;-2.59;43.13;94627.41;4977520;28;20432;-74
2021/12/23 04:43:36;;;;;;;9.68;6.13;;;;;;;-2.48;42.85;94631.91;4978551;28;20030;-73
2021/12/23 04:46:02;;;;;;;11.32;5.45;;;;;;;-2.68;43.17;94627.88;4979693;28;20117;-74
2021/12/23 05:08:24;;;;;;;14.88;7.38;;;;;;;-2.56;42.61;94647.00;5085816;27;20499;-77
2021/12/23 05:10:49;;;;;;;10.45;6.93;;;;;;;-2.59;42.81;94642.22;5012158;28;20755;-77
2021/12/23 05:13:15;;;;;;;10.65;6.63;;;;;;;-2.85;42.91;94644.00;5029542;28;20080;-76
2021/12/23 05:15:41;;;;;;;12.82;7.07;;;;;;;-2.82;42.95;94607.13;5029152;28;20088;-77
2021/12/23 05:18:07;;;;;;;20.48;8.40;;;;;;;-3.02;43.37;94610.88;5024928;28;20037;-76
2021/12/23 05:20:33;;;;;;;11.05;6.63;;;;;;;-2.91;43.17;94620.59;5011091;28;20016;-77
2021/12/23 05:22:58;;;;;;;8.93;6.28;;;;;;;-3.08;43.67;94628.13;5029746;28;20056;-78
2021/12/23 05:25:24;;;;;;;8.45;5.32;;;;;;;-2.91;43.49;94625.81;5025494;28;20037;-77
2021/12/23 05:27:54;;;;;;;8.02;6.05;;;;;;;-3.15;43.51;94619.53;5028248;28;20063;-78
2021/12/23 05:30:21;;;;;;;6.97;4.55;;;;;;;-3.18;43.90;94638.19;5025931;28;20741;-77
2021/12/23 05:32:47;;;;;;;12.48;7.13;;;;;;;-3.10;43.83;94640.53;5025830;28;20040;-77
2021/12/23 05:35:14;;;;;;;8.48;6.45;;;;;;;-3.00;43.80;94635.66;5026659;28;20355;-76
2021/12/23 05:37:40;;;;;;;11.25;6.53;;;;;;;-3.15;43.70;94642.97;5028148;28;20145;-77
2021/12/23 05:40:10;;;;;;;18.55;7.70;;;;;;;-3.09;43.76;94629.13;5026465;28;20055;-77
2021/12/23 05:42:36;;;;;;;11.65;6.97;;;;;;;-3.05;43.97;94645.91;5025442;28;20052;-77
2021/12/23 05:45:01;;;;;;;14.23;6.85;;;;;;;-3.14;44.14;94639.34;5026479;28;20440;-77
2021/12/23 05:47:26;;;;;;;8.65;5.57;;;;;;;-3.09;43.95;94647.34;5007246;28;20040;-77
2021/12/23 05:49:52;;;;;;;9.98;6.28;;;;;;;-3.09;43.78;94636.94;5023347;28;20516;-76
2021/12/23 05:52:17;;;;;;;6.80;5.68;;;;;;;-3.19;44.05;94613.16;5026074;28;20040;-77
2021/12/23 05:54:43;;;;;;;11.02;5.68;;;;;;;-3.26;43.76;94610.59;5026006;28;20650;-77
2021/12/23 05:57:08;;;;;;;8.82;5.90;;;;;;;-2.98;43.77;94638.06;5024283;28;20078;-77
2021/12/23 05:59:35;;;;;;;10.73;6.00;;;;;;;-3.01;43.60;94644.47;5006543;28;20022;-76
2021/12/23 06:02:04;;;;;;;9.75;5.65;;;;;;;-3.10;43.86;94631.91;5022596;28;20029;-77
2021/12/23 06:04:30;;;;;;;9.40;5.57;;;;;;;-3.10;43.74;94635.31;5019761;28;20048;-77
2021/12/23 06:06:55;;;;;;;12.13;5.68;;;;;;;-3.10;43.29;94614.50;5024006;28;20493;-77
2021/12/23 06:09:21;;;;;;;9.77;6.30;;;;;;;-3.21;44.00;94639.38;5009110;28;20037;-76
2021/12/23 06:11:46;;;;;;;11.00;6.00;;;;;;;-3.29;44.20;94636.22;5006296;28;20505;-77
2021/12/23 06:14:11;;;;;;;10.70;5.88;;;;;;;-2.98;43.29;94631.06;5011071;28;20176;-77
2021/12/23 06:16:37;;;;;;;7.43;4.72;;;;;;;-2.97;43.58;94640.44;5009704;28;20088;-77
2021/12/23 06:19:03;;;;;;;9.20;5.65;;;;;;;-3.05;43.83;94655.50;5008186;28;20621;-76
2021/12/23 06:21:30;;;;;;;7.43;5.00;;;;;;;-3.05;44.21;94658.13;5010077;28;20040;-77
2021/12/23 06:23:56;;;;;;;15.02;6.47;;;;;;;-3.17;44.22;94635.34;5006167;28;20040;-77
2021/12/23 06:26:22;;;;;;;8.95;5.15;;;;;;;-3.08;44.32;94659.34;5011660;28;20029;-77
2021/12/23 06:28:48;;;;;;;12.93;6.97;;;;;;;-3.22;44.46;94632.56;5008433;28;20045;-77
2021/12/23 06:31:13;;;;;;;14.00;6.63;;;;;;;-3.24;44.43;94632.00;4993384;28;20477;-77
2021/12/23 06:33:39;;;;;;;6.55;4.90;;;;;;;-2.99;44.74;94662.50;5005667;28;20407;-77
2021/12/23 06:36:05;;;;;;;11.63;6.18;;;;;;;-2.92;44.76;94656.25;4989028;28;20494;-77
2021/12/23 06:38:31;;;;;;;7.28;6.30;;;;;;;-3.04;44.50;94644.91;4991342;28;20026;-77
2021/12/23 06:40:57;;;;;;;8.55;6.22;;;;;;;-2.75;44.08;94654.75;5006483;28;20037;-76
2021/12/23 06:43:22;;;;;;;12.85;6.28;;;;;;;-2.91;44.14;94626.59;5006391;28;20104;-76
2021/12/23 06:45:48;;;;;;;12.55;6.75;;;;;;;-2.76;44.45;94647.94;5013105;28;20033;-77
2021/12/23 06:48:13;;;;;;;19.23;7.60;;;;;;;-2.63;44.55;94646.28;4995861;28;20525;-77
2021/12/23 06:50:39;;;;;;;17.88;8.75;;;;;;;-2.74;44.35;94625.09;5008695;28;20373;-75
2021/12/23 06:53:04;;;;;;;18.08;9.63;;;;;;;-2.65;44.64;94649.06;5007227;28;20030;-76
2021/12/23 06:55:30;;;;;;;14.15;9.02;;;;;;;-2.55;44.86;94646.00;5003717;28;20176;-77
2021/12/23 06:57:57;;;;;;;12.80;8.05;;;;;;;-2.78;44.49;94597.88;5009143;28;20061;-76
2021/12/23 07:00:25;;;;;;;10.73;7.28;;;;;;;-2.88;44.96;94618.38;4993280;28;20033;-77
2021/12/23 07:02:52;;;;;;;10.43;7.57;;;;;;;-2.59;45.17;94632.63;5008589;28;20040;-77
2021/12/23 07:05:17;;;;;;;15.38;8.90;;;;;;;-2.29;44.75;94654.41;5006029;28;20025;-78
2021/12/23 07:08:08;;;;;;;16.70;8.80;;;;;;;-2.30;44.71;94652.03;5007547;28;20500;-77
2021/12/23 07:10:34;;;;;;;14.27;8.85;;;;;;;-2.16;44.04;94631.84;4989208;28;20034;-77
2021/12/23 07:13:00;;;;;;;15.20;8.15;;;;;;;-2.12;44.23;94654.66;4989328;28;20401;-76
2021/12/23 07:15:26;;;;;;;15.82;9.50;;;;;;;-2.61;44.46;94628.59;4993500;28;20525;-77
2021/12/23 07:17:57;;;;;;;17.40;11.48;;;;;;;-2.52;44.64;94648.97;5010290;28;20542;-78
2021/12/23 07:20:23;;;;;;;17.23;11.38;;;;;;;-2.75;44.85;94639.13;5003087;28;20441;-77
2021/12/23 07:22:49;;;;;;;23.33;11.55;;;;;;;-2.48;44.63;94639.72;4996091;28;20038;-76
2021/12/23 07:25:15;;;;;;;18.27;9.80;;;;;;;-2.29;44.11;94648.41;5008706;28;20042;-76
2021/12/23 07:27:41;;;;;;;22.45;11.32;;;;;;;-2.33;44.47;94655.03;5008330;28;20046;-77
2021/12/23 07:30:08;;;;;;;17.55;11.32;;;;;;;-1.89;43.93;94664.47;5005664;28;20327;-77
2021/12/23 07:32:33;;;;;;;15.73;9.52;;;;;;;-1.86;43.72;94662.28;5006352;28;20018;-77
2021/12/23 07:34:59;;;;;;;18.50;9.45;;;;;;;-2.07;43.65;94647.00;5007763;28;20041;-76
2021/12/23 07:37:24;;;;;;;16.48;10.00;;;;;;;-2.01;43.88;94667.00;5008714;28;20532;-77
2021/12/23 07:39:51;;;;;;;19.65;10.85;;;;;;;-2.02;44.03;94675.03;5009474;28;20130;-77
2021/12/23 07:42:18;;;;;;;22.88;10.40;;;;;;;-2.57;45.03;94650.63;5004702;28;20037;-77
2021/12/23 07:44:44;;;;;;;17.83;10.18;;;;;;;-2.15;44.69;94675.16;5008338;28;20025;-77
2021/12/23 07:47:11;;;;;;;16.33;9.93;;;;;;;-2.03;43.94;94673.44;4976322;28;20030;-77
2021/12/23 07:49:37;;;;;;;20.08;10.90;;;;;;;-1.88;43.98;94677.31;4965652;28;20057;-77
2021/12/23 07:52:02;;;;;;;14.35;9.48;;;;;;;-1.97;44.27;94678.59;4986986;28;20034;-76
2021/12/23 07:54:28;;;;;;;24.67;12.02;;;;;;;-2.00;44.49;94673.84;4972747;28;20402;-78
2021/12/23 07:56:53;;;;;;;20.88;12.82;;;;;;;-1.97;44.38;94642.09;4986448;28;20042;-77
2021/12/23 07:59:19;;;;;;;25.38;12.10;;;;;;;-1.78;44.26;94652.56;5009910;28;20496;-76
2021/12/23 08:01:45;;;;;;;17.50;12.15;;;;;;;-1.51;43.96;94677.38;4989603;28;20038;-77
2021/12/23 08:04:10;;;;;;;16.27;11.02;;;;;;;-1.69;43.56;94654.66;5008806;28;20049;-77
2021/12/23 08:06:35;;;;;;;16.63;10.10;;;;;;;-1.79;43.41;94671.81;5007547;28;20410;-77
2021/12/23 08:09:01;;;;;;;15.27;9.32;;;;;;;-2.14;43.47;94672.31;5006668;28;20045;-77
2021/12/23 08:11:27;;;;;;;17.55;9.68;;;;;;;-1.91;43.61;94667.31;4989619;28;20064;-77
2021/12/23 08:13:52;;;;;;;21.63;13.60;;;;;;;-1.92;43.62;94672.75;5007006;28;20033;-76
2021/12/23 08:16:18;;;;;;;19.88;10.13;;;;;;;-1.73;42.73;94658.72;5006076;28;20045;-77
2021/12/23 08:18:43;;;;;;;24.77;9.52;;;;;;;-1.73;42.68;94652.69;5006600;28;20026;-77
2021/12/23 08:21:09;;;;;;;15.68;9.65;;;;;;;-1.46;42.92;94675.69;4991195;28;20547;-76
2021/12/23 08:23:34;;;;;;;14.13;9.00;;;;;;;-1.73;42.74;94668.34;5008536;28;20181;-76
2021/12/23 08:26:03;;;;;;;18.83;9.48;;;;;;;-1.70;42.33;94654.91;5005578;28;20041;-77
2021/12/23 08:28:29;;;;;;;17.05;9.73;;;;;;;-1.26;41.91;94667.63;5006503;28;20034;-77
2021/12/23 08:30:55;;;;;;;25.45;10.75;;;;;;;-1.35;40.97;94624.56;5007363;28;20041;-76
2021/12/23 08:33:20;;;;;;;18.90;10.02;;;;;;;-1.33;41.59;94653.06;4989958;28;20040;-77
2021/12/23 08:35:46;;;;;;;20.85;12.73;;;;;;;-1.35;41.95;94655.09;5006164;28;20025;-76
2021/12/23 08:38:11;;;;;;;17.27;11.73;;;;;;;-1.63;42.39;94639.97;5004878;28;20033;-77
2021/12/23 08:40:36;;;;;;;21.67;12.07;;;;;;;-1.91;42.77;94624.81;5006597;28;20060;-77
2021/12/23 08:43:03;;;;;;;18.77;11.00;;;;;;;-1.73;42.66;94655.31;5006893;28;20448;-77
2021/12/23 08:45:31;;;;;;;21.33;10.65;;;;;;;-1.61;42.21;94633.53;5015446;28;20041;-78
2021/12/23 08:47:57;;;;;;;23.30;11.27;;;;;;;-1.41;42.00;94630.69;5007680;28;20098;-78
2021/12/23 08:50:25;;;;;;;67.65;21.45;;;;;;;-0.91;41.52;94635.66;5029697;28;20032;-77
2021/12/23 08:52:51;;;;;;;32.13;14.77;;;;;;;-0.81;41.05;94647.19;5023516;28;20045;-77
2021/12/23 08:55:18;;;;;;;24.63;11.45;;;;;;;-0.71;41.28;94630.97;5027498;28;20041;-77
2021/12/23 08:57:43;;;;;;;19.92;12.35;;;;;;;-0.54;40.97;94630.13;5022771;28;20030;-75
2021/12/23 09:00:13;;;;;;;14.13;9.98;;;;;;;-1.40;41.42;94612.19;5008983;28;20044;-76
2021/12/23 09:02:39;;;;;;;15.68;9.70;;;;;;;-1.50;41.89;94616.31;5024660;28;20322;-78
2021/12/23 09:05:05;;;;;;;18.50;10.13;;;;;;;-2.03;42.20;94616.88;5014267;28;20528;-77
2021/12/23 09:07:31;;;;;;;18.42;10.35;;;;;;;-1.84;42.40;94628.94;5025581;28;20143;-76
2021/12/23 09:09:56;;;;;;;11.93;9.00;;;;;;;-2.39;42.46;94581.13;5026439;28;20075;-77
2021/12/23 09:12:22;;;;;;;16.90;8.98;;;;;;;-2.86;43.07;94597.34;5026425;28;20037;-76
2021/12/23 09:14:48;;;;;;;16.65;9.43;;;;;;;-2.85;43.58;94607.53;5029747;28;20380;-76
2021/12/23 09:17:14;;;;;;;21.52;9.50;;;;;;;-2.79;44.23;94606.72;5024036;28;20059;-76
2021/12/23 09:19:40;;;;;;;14.45;9.18;;;;;;;-1.85;43.01;94593.44;5023603;28;20118;-77
2021/12/23 09:22:08;;;;;;;14.70;8.63;;;;;;;-1.52;42.11;94555.75;5015426;28;20045;-77
2021/12/23 09:24:35;;;;;;;18.88;10.52;;;;;;;-2.09;42.70;94585.66;5026127;28;20615;-77
2021/12/23 09:34:59;;;;;;;17.55;9.13;;;;;;;-1.79;41.78;94560.47;5027948;28;20040;-77
2021/12/23 09:37:26;;;;;;;14.75;9.93;;;;;;;-1.89;42.39;94581.06;5027729;28;20033;-77
2021/12/23 09:39:54;;;;;;;14.27;10.35;;;;;;;-2.20;42.48;94589.81;5023432;28;21218;-76
2021/12/23 09:42:25;;;;;;;15.95;9.75;;;;;;;-3.17;44.04;94572.91;5023074;28;20033;-76
2021/12/23 09:44:56;;;;;;;22.02;9.75;;;;;;;-3.00;44.30;94559.38;5026170;28;20036;-76
2021/12/23 09:47:23;;;;;;;12.82;9.00;;;;;;;-2.63;43.74;94578.56;5032139;28;20026;-77
2021/12/23 09:49:49;;;;;;;16.95;8.82;;;;;;;-2.34;43.48;94567.50;5026899;28;20493;-77
2021/12/23 09:52:15;;;;;;;17.10;10.07;;;;;;;-2.86;44.01;94561.69;5012913;28;20044;-77
2021/12/23 09:54:43;;;;;;;18.48;10.77;;;;;;;-2.34;43.16;94551.84;5026716;28;20036;-77
2021/12/23 09:57:08;;;;;;;18.20;10.70;;;;;;;-1.81;42.40;94533.84;5029151;28;20055;-77
2021/12/23 09:59:34;;;;;;;18.08;10.63;;;;;;;-1.45;41.17;94499.06;5027457;28;20064;-77
2021/12/23 10:02:00;;;;;;;28.95;15.63;;;;;;;-1.19;41.43;94539.66;5010027;28;20057;-75
2021/12/23 10:04:25;;;;;;;19.08;11.13;;;;;;;-1.46;41.42;94471.41;5015671;28;20069;-76
2021/12/23 10:06:51;;;;;;;17.25;10.68;;;;;;;-1.38;40.89;94526.66;5029852;28;20049;-77
2021/12/23 10:09:38;;;;;;;19.42;10.25;;;;;;;-1.34;41.01;94526.22;5026749;28;20619;-77
2021/12/23 10:31:20;;;;;;;19.60;11.65;;;;;;;-1.42;41.11;94472.53;5029415;28;20048;-77
2021/12/23 10:37:04;;;;;;;26.30;11.25;;;;;;;-1.29;41.00;94479.38;5030899;28;20156;-77
2021/12/23 10:39:23;;;;;;;13.88;9.95;;;;;;;-0.27;40.18;94491.16;5026762;28;20132;-78
2021/12/23 10:41:49;;;;;;;17.15;10.35;;;;;;;-0.00;39.82;94494.06;5030692;28;20498;-77
2021/12/23 10:44:14;;;;;;;22.98;12.20;;;;;;;-0.13;40.01;94493.28;5018348;28;20979;-77
2021/12/23 10:46:41;;;;;;;17.83;9.93;;;;;;;0.05;39.00;94470.66;5028314;28;20033;-77
2021/12/23 10:52:07;;;;;;;20.25;11.48;;;;;;;0.15;39.66;94478.69;5026961;28;20075;-76
2021/12/23 11:00:20;;;;;;;18.85;10.00;;;;;;;0.43;38.57;94439.44;5028866;28;20043;-77
2021/12/23 11:03:13;;;;;;;19.08;11.63;;;;;;;0.25;38.27;94468.44;5027416;28;20620;-77
2021/12/23 11:05:46;;;;;;;18.40;11.55;;;;;;;0.34;38.49;94465.19;5028546;28;20029;-76
2021/12/23 11:08:30;;;;;;;25.50;12.23;;;;;;;0.59;38.42;94437.91;5028441;28;20056;-77
2021/12/23 11:39:24;;;;;;;22.27;12.50;;;;;;;0.19;39.06;94411.78;5024785;28;20167;-77
2021/12/23 11:42:04;;;;;;;26.27;13.43;;;;;;;-0.09;38.98;94394.25;5025445;28;20041;-77
2021/12/23 11:44:31;;;;;;;19.73;11.43;;;;;;;-0.59;40.11;94412.34;5024832;28;20414;-76
2021/12/23 11:47:02;;;;;;;20.30;12.43;;;;;;;-0.07;39.24;94381.75;5010594;28;20037;-77
2021/12/23 11:49:29;;;;;;;21.63;11.65;;;;;;;0.48;38.60;94389.81;5023785;28;20135;-77
2021/12/23 11:51:55;;;;;;;20.45;11.27;;;;;;;-0.01;39.10;94369.56;5024661;28;20033;-76
2021/12/23 11:54:33;;;;;;;30.92;12.30;;;;;;;0.33;38.86;94390.34;5014611;28;20527;-76
2021/12/23 11:57:04;;;;;;;17.13;11.50;;;;;;;0.90;38.34;94394.66;5025594;28;20113;-77
2021/12/23 11:59:32;;;;;;;22.48;12.68;;;;;;;0.96;37.79;94385.84;5029294;28;20378;-77
2021/12/23 12:01:58;;;;;;;19.98;11.30;;;;;;;0.56;38.05;94381.56;5022487;28;20040;-77
2021/12/23 12:04:37;;;;;;;25.50;13.80;;;;;;;0.36;38.31;94382.00;5027637;28;20080;-77
2021/12/23 12:07:24;;;;;;;21.80;13.65;;;;;;;-0.29;39.32;94386.84;5029939;28;20076;-76
2021/12/23 12:10:03;;;;;;;22.23;12.80;;;;;;;-0.63;40.45;94395.53;5030219;28;20432;-76
2021/12/23 12:12:31;;;;;;;24.02;12.75;;;;;;;-0.48;40.20;94385.38;5021077;28;20416;-77
2021/12/23 12:14:58;;;;;;;23.75;11.30;;;;;;;-0.47;40.19;94373.91;5038985;28;20025;-77
2021/12/23 12:17:23;;;;;;;22.70;15.25;;;;;;;0.14;39.60;94378.50;5029018;28;20584;-77
2021/12/23 12:20:34;;;;;;;23.23;13.57;;;;;;;0.62;39.15;94372.78;5022135;28;20043;-77
2021/12/23 12:23:19;;;;;;;24.10;12.63;;;;;;;-0.45;39.86;94373.69;5026108;28;20033;-77
2021/12/23 12:25:49;;;;;;;20.25;13.20;;;;;;;-0.67;40.33;94373.47;5039130;28;20041;-76
2021/12/23 12:28:35;;;;;;;18.02;11.27;;;;;;;-0.39;39.80;94376.19;5028158;28;20048;-76
2021/12/23 12:31:13;;;;;;;22.58;12.38;;;;;;;-0.30;39.30;94350.47;5027894;28;20042;-76
2021/12/23 12:33:55;;;;;;;21.27;13.07;;;;;;;0.17;39.34;94370.16;5026011;28;20035;-77
2021/12/23 12:36:22;;;;;;;23.00;12.32;;;;;;;-0.23;39.35;94367.59;5029068;28;20033;-77
2021/12/23 12:39:10;;;;;;;22.23;12.02;;;;;;;0.33;38.75;94360.78;5024576;28;20040;-78
2021/12/23 12:41:37;;;;;;;18.45;11.75;;;;;;;0.10;38.56;94343.38;5015262;28;20700;-77
2021/12/23 12:44:12;;;;;;;18.42;11.27;;;;;;;0.29;38.60;94364.88;5027628;28;20068;-77
2021/12/23 12:46:48;;;;;;;23.83;11.73;;;;;;;0.53;38.59;94355.06;5026550;28;20143;-77
2021/12/23 12:49:26;;;;;;;22.52;12.50;;;;;;;-0.20;38.90;94351.47;5024977;28;20036;-77
2021/12/23 12:52:14;;;;;;;16.02;9.60;;;;;;;-0.21;39.28;94349.88;5027664;28;20046;-77
2021/12/23 12:55:05;;;;;;;18.10;10.48;;;;;;;0.04;39.47;94356.59;5025081;28;20507;-77
2021/12/23 12:57:37;;;;;;;17.95;10.75;;;;;;;-0.03;38.83;94327.16;5026086;28;20041;-77
2021/12/23 13:00:18;;;;;;;16.83;9.25;;;;;;;-0.16;38.53;94357.81;5027775;28;20446;-77
2021/12/23 13:02:54;;;;;;;26.67;12.65;;;;;;;-0.69;39.79;94357.25;5024559;28;20421;-78
2021/12/23 13:05:30;;;;;;;18.55;8.80;;;;;;;-0.55;40.18;94363.81;5029516;28;20040;-78